< < Back
Terminal Aerodrome Forecast


Current Version              Previous Versions:   1  2  3  4  5  6  7  8  9  

Terminal Aerodrome Forecast

841
FTUS44 KHUN 291120
TAFHSV
TAF
KHSV 291120Z 2912/3012 VRB03KT P6SM FEW040 SCT150
     FM291600 30007KT P6SM SCT040 SCT250
     FM300000 VRB03KT P6SM SKC=



Latest METAR

140
SAUS80 KWBC 300600 CCA
MTRHSV
METAR KHSV 300553Z AUTO 24003KT 10SM CLR 21/17 A3004 RMK AO2 SLP164
T02060172 10311 20206 403330178 58003


USA.gov is the U.S. government's official web portal to all federal, state and local government web resources and services.